Time;durP1;ratioP1;P1;durP2;ratioP2;P2;SDS_P1;SDS_P2;PMS_P1;PMS_P2;Temp;Humidity;BMP_temperature;BMP_pressure;BME280_temperature;BME280_humidity;BME280_pressure;Samples;Min_cycle;Max_cycle;Signal;HPM_P1;HPM_P2
2022/01/13 00:01:51;;;;;;;96.88;13.60;;;;;;;;;;5071517;28;20093;-79
2022/01/13 00:04:18;;;;;;;92.72;14.13;;;;;;;;;;5054275;28;20047;-79
2022/01/13 00:06:44;;;;;;;90.65;14.32;;;;;;;;;;5071552;28;20373;-80
2022/01/13 00:09:10;;;;;;;103.00;13.88;;;;;;;;;;5070787;28;20041;-79
2022/01/13 00:11:37;;;;;;;92.25;12.68;;;;;;;;;;5070993;28;20064;-79
2022/01/13 00:16:55;;;;;;;101.18;13.82;;;;;;;;;;5070457;28;20385;-79
2022/01/13 00:19:33;;;;;;;97.15;13.25;;;;;;;;;;5053928;28;20483;-79
2022/01/13 00:22:14;;;;;;;96.85;14.35;;;;;;;;;;5070802;28;20048;-80
2022/01/13 00:24:42;;;;;;;95.88;13.85;;;;;;;;;;5071185;28;20056;-79
2022/01/13 00:27:11;;;;;;;90.18;14.40;;;;;;;;;;5071622;28;20044;-79
2022/01/13 00:29:41;;;;;;;123.78;15.15;;;;;;;;;;5071015;28;20041;-79
2022/01/13 00:32:08;;;;;;;118.90;15.27;;;;;;;;;;5054000;28;20040;-79
2022/01/13 00:34:34;;;;;;;80.30;13.07;;;;;;;;;;5071081;28;20048;-79
2022/01/13 00:37:00;;;;;;;107.00;14.20;;;;;;;;;;5070708;28;20044;-79
2022/01/13 00:39:27;;;;;;;104.85;13.77;;;;;;;;;;5070440;28;20094;-79
2022/01/13 00:41:53;;;;;;;113.85;15.27;;;;;;;;;;5070497;28;20036;-79
2022/01/13 00:44:21;;;;;;;109.00;15.07;;;;;;;;;;5053056;28;20044;-79
2022/01/13 00:46:56;;;;;;;113.03;15.02;;;;;;;;;;5071212;28;20115;-79
2022/01/13 00:49:23;;;;;;;132.55;15.20;;;;;;;;;;5071832;28;20045;-79
2022/01/13 00:51:49;;;;;;;140.73;15.63;;;;;;;;;;5069537;28;20044;-79
2022/01/13 00:54:15;;;;;;;128.93;14.70;;;;;;;;;;5070108;28;20036;-79
2022/01/13 00:56:41;;;;;;;150.00;15.15;;;;;;;;;;5070150;28;20048;-80
2022/01/13 00:59:09;;;;;;;160.13;15.32;;;;;;;;;;5053601;28;20090;-79
2022/01/13 01:01:40;;;;;;;134.25;16.33;;;;;;;;;;5070169;28;20051;-79
2022/01/13 01:04:06;;;;;;;122.70;13.77;;;;;;;;;;5071859;28;20032;-79
2022/01/13 01:06:33;;;;;;;128.35;14.82;;;;;;;;;;5053392;28;20048;-79
2022/01/13 01:08:59;;;;;;;120.07;14.07;;;;;;;;;;5071000;28;20050;-80
2022/01/13 01:11:26;;;;;;;117.15;14.25;;;;;;;;;;5069275;28;20068;-80
2022/01/13 01:13:56;;;;;;;133.07;15.20;;;;;;;;;;5070445;28;20127;-80
2022/01/13 01:16:24;;;;;;;132.02;15.02;;;;;;;;;;5053355;28;20044;-79
2022/01/13 01:31:39;;;;;;;109.55;15.00;;;;;;;;;;5070305;28;20123;-80
2022/01/13 01:36:51;;;;;;;121.68;15.52;;;;;;;;;;5070978;28;20074;-79
2022/01/13 01:39:17;;;;;;;124.90;14.57;;;;;;;;;;5069565;28;20142;-79
2022/01/13 01:41:45;;;;;;;131.27;15.93;;;;;;;;;;5069564;28;20056;-79
2022/01/13 01:44:16;;;;;;;109.90;15.10;;;;;;;;;;5069281;28;20072;-79
2022/01/13 01:46:45;;;;;;;115.43;14.90;;;;;;;;;;5069888;28;20052;-79
2022/01/13 01:49:21;;;;;;;110.95;15.50;;;;;;;;;;5069699;28;20048;-79
2022/01/13 01:51:51;;;;;;;120.60;15.60;;;;;;;;;;5052752;28;20159;-79
2022/01/13 01:54:18;;;;;;;102.68;15.15;;;;;;;;;;5053160;28;20063;-79
2022/01/13 01:56:44;;;;;;;102.18;14.00;;;;;;;;;;5069456;28;20109;-80
2022/01/13 01:59:14;;;;;;;121.50;15.23;;;;;;;;;;5052842;28;20047;-79
2022/01/13 02:01:40;;;;;;;102.68;14.68;;;;;;;;;;5068930;28;20048;-79
2022/01/13 02:04:07;;;;;;;108.53;15.13;;;;;;;;;;5069488;28;20374;-79
2022/01/13 02:06:35;;;;;;;127.15;15.05;;;;;;;;;;5068816;28;20048;-79
2022/01/13 02:09:01;;;;;;;87.00;13.32;;;;;;;;;;5069212;28;20056;-79
2022/01/13 02:11:27;;;;;;;102.25;14.15;;;;;;;;;;5052073;28;20056;-79
2022/01/13 02:13:58;;;;;;;111.88;14.68;;;;;;;;;;5069031;28;20127;-80
2022/01/13 02:18:57;;;;;;;109.15;15.13;;;;;;;;;;5069110;28;20167;-79
2022/01/13 02:21:25;;;;;;;116.40;14.15;;;;;;;;;;5068216;28;20037;-79
2022/01/13 02:23:51;;;;;;;112.13;14.43;;;;;;;;;;5069011;28;20476;-79
2022/01/13 02:26:18;;;;;;;100.43;13.68;;;;;;;;;;5051710;28;20129;-79
2022/01/13 02:28:44;;;;;;;126.90;15.35;;;;;;;;;;5069126;28;20408;-79
2022/01/13 02:31:12;;;;;;;122.75;14.90;;;;;;;;;;5069208;28;20053;-79
2022/01/13 02:33:38;;;;;;;150.02;16.73;;;;;;;;;;5068876;28;20149;-79
2022/01/13 02:36:05;;;;;;;131.73;15.65;;;;;;;;;;5069002;28;20089;-79
2022/01/13 02:38:31;;;;;;;133.32;15.70;;;;;;;;;;5068292;28;20110;-79
2022/01/13 02:40:58;;;;;;;113.05;15.35;;;;;;;;;;5068975;28;20044;-79
2022/01/13 02:43:25;;;;;;;139.75;16.27;;;;;;;;;;5068462;28;20048;-79
2022/01/13 02:46:05;;;;;;;128.68;15.80;;;;;;;;;;5069692;28;20127;-79
2022/01/13 02:48:32;;;;;;;130.73;14.30;;;;;;;;;;5069764;28;20036;-80
2022/01/13 02:50:59;;;;;;;138.00;15.68;;;;;;;;;;5055765;28;20100;-80
2022/01/13 02:53:25;;;;;;;123.70;15.52;;;;;;;;;;5048556;28;20041;-80
2022/01/13 02:55:56;;;;;;;120.97;15.57;;;;;;;;;;5049037;28;20045;-79
2022/01/13 02:58:23;;;;;;;115.63;14.32;;;;;;;;;;5048787;28;20041;-79
2022/01/13 03:00:49;;;;;;;146.25;15.65;;;;;;;;;;5032088;28;20056;-79
2022/01/13 03:03:15;;;;;;;104.60;14.20;;;;;;;;;;5068051;28;20504;-79
2022/01/13 03:05:41;;;;;;;121.45;15.25;;;;;;;;;;5068095;28;20040;-79
2022/01/13 03:08:08;;;;;;;133.13;15.18;;;;;;;;;;5068539;28;20063;-79
2022/01/13 03:10:35;;;;;;;114.20;14.05;;;;;;;;;;5068701;28;20130;-79
2022/01/13 03:13:02;;;;;;;120.18;14.73;;;;;;;;;;5051671;28;20420;-79
2022/01/13 03:15:28;;;;;;;112.78;14.70;;;;;;;;;;5069849;28;20049;-79
2022/01/13 03:17:54;;;;;;;119.85;14.88;;;;;;;;;;5069109;28;20044;-79
2022/01/13 03:20:20;;;;;;;110.10;14.40;;;;;;;;;;5051426;28;20048;-79
2022/01/13 03:22:46;;;;;;;113.22;14.55;;;;;;;;;;5069722;28;20396;-79
2022/01/13 03:25:14;;;;;;;124.60;14.68;;;;;;;;;;5069186;28;20040;-79
2022/01/13 03:27:41;;;;;;;117.97;15.65;;;;;;;;;;5068232;28;20052;-79
2022/01/13 03:30:09;;;;;;;99.65;14.30;;;;;;;;;;5052657;28;20493;-79
2022/01/13 03:32:36;;;;;;;145.57;16.33;;;;;;;;;;5068802;28;20044;-79
2022/01/13 03:35:02;;;;;;;134.25;15.07;;;;;;;;;;5073644;28;20043;-80
2022/01/13 03:37:29;;;;;;;127.47;14.68;;;;;;;;;;5072480;28;20588;-79
2022/01/13 03:39:55;;;;;;;138.90;15.70;;;;;;;;;;5072142;28;20504;-79
2022/01/13 03:42:21;;;;;;;127.50;15.07;;;;;;;;;;5054975;28;20074;-79
2022/01/13 03:44:48;;;;;;;165.88;16.45;;;;;;;;;;5055301;28;20043;-79
2022/01/13 03:47:15;;;;;;;140.70;15.38;;;;;;;;;;5071269;28;20048;-79
2022/01/13 03:49:41;;;;;;;149.43;15.77;;;;;;;;;;5073332;28;20041;-79
2022/01/13 03:52:10;;;;;;;146.90;16.42;;;;;;;;;;5072415;28;20555;-79
2022/01/13 03:54:36;;;;;;;174.18;17.55;;;;;;;;;;5072109;28;20098;-79
2022/01/13 03:57:18;;;;;;;156.73;17.23;;;;;;;;;;5074433;28;20041;-79
2022/01/13 04:00:02;;;;;;;148.55;15.07;;;;;;;;;;5073083;28;20508;-79
2022/01/13 04:02:29;;;;;;;156.80;16.75;;;;;;;;;;5054681;28;20049;-79
2022/01/13 04:04:55;;;;;;;151.98;16.40;;;;;;;;;;5038809;28;20049;-79
2022/01/13 04:07:22;;;;;;;144.43;16.50;;;;;;;;;;5072408;28;20060;-79
2022/01/13 04:09:48;;;;;;;164.35;18.55;;;;;;;;;;5073746;28;20044;-79
2022/01/13 04:12:15;;;;;;;163.38;18.02;;;;;;;;;;5072280;28;20362;-79
2022/01/13 04:17:08;;;;;;;152.98;17.50;;;;;;;;;;5072440;28;20055;-79
2022/01/13 04:19:35;;;;;;;162.32;17.90;;;;;;;;;;5077280;28;20047;-79
2022/01/13 04:22:03;;;;;;;137.32;16.60;;;;;;;;;;5074783;28;20396;-79
2022/01/13 04:24:29;;;;;;;191.35;19.00;;;;;;;;;;5075539;28;20070;-80
2022/01/13 04:26:56;;;;;;;143.75;18.00;;;;;;;;;;5077908;28;20107;-80
2022/01/13 04:31:58;;;;;;;170.60;19.17;;;;;;;;;;5071241;28;20049;-80
2022/01/13 04:34:24;;;;;;;154.93;18.52;;;;;;;;;;5071018;28;20083;-79
2022/01/13 04:36:50;;;;;;;169.98;18.90;;;;;;;;;;5071557;28;20123;-79
2022/01/13 04:39:17;;;;;;;167.52;18.92;;;;;;;;;;5071185;28;20052;-80
2022/01/13 04:41:46;;;;;;;177.82;18.42;;;;;;;;;;5071891;28;20051;-80
2022/01/13 04:44:14;;;;;;;176.68;18.02;;;;;;;;;;5072163;28;20514;-79
2022/01/13 04:46:41;;;;;;;181.45;19.77;;;;;;;;;;5071958;28;20488;-80
2022/01/13 04:49:07;;;;;;;105.57;16.10;;;;;;;;;;5072067;28;20111;-79
2022/01/13 04:51:34;;;;;;;154.68;17.25;;;;;;;;;;5070641;28;20090;-79
2022/01/13 04:54:00;;;;;;;169.38;18.17;;;;;;;;;;5072736;28;20123;-80
2022/01/13 04:56:37;;;;;;;172.23;18.02;;;;;;;;;;5053724;28;20045;-80
2022/01/13 04:59:04;;;;;;;170.40;17.48;;;;;;;;;;5070017;28;20048;-79
2022/01/13 05:01:30;;;;;;;134.98;16.70;;;;;;;;;;5049633;28;20484;-79
2022/01/13 05:03:56;;;;;;;157.68;16.55;;;;;;;;;;5069736;28;20492;-79
2022/01/13 05:06:23;;;;;;;181.20;17.83;;;;;;;;;;5068765;28;20068;-79
2022/01/13 05:08:49;;;;;;;135.85;16.90;;;;;;;;;;5070238;28;20077;-80
2022/01/13 05:11:16;;;;;;;134.43;15.82;;;;;;;;;;5071061;28;20106;-80
2022/01/13 05:13:42;;;;;;;105.97;14.13;;;;;;;;;;5070463;28;20048;-79
2022/01/13 05:16:15;;;;;;;157.65;16.33;;;;;;;;;;5053985;28;20051;-79
2022/01/13 05:18:54;;;;;;;136.00;14.68;;;;;;;;;;5071289;28;20047;-79
2022/01/13 05:23:47;;;;;;;169.32;16.33;;;;;;;;;;5070086;28;20511;-79
2022/01/13 05:26:13;;;;;;;167.65;17.85;;;;;;;;;;5070216;28;20549;-79
2022/01/13 05:28:41;;;;;;;161.48;16.13;;;;;;;;;;5070478;28;20043;-79
2022/01/13 05:31:07;;;;;;;160.23;16.73;;;;;;;;;;5069543;28;20049;-79
2022/01/13 05:33:34;;;;;;;178.57;17.00;;;;;;;;;;5069707;28;20055;-79
2022/01/13 05:36:03;;;;;;;176.95;17.90;;;;;;;;;;5070054;28;20048;-79
2022/01/13 05:38:29;;;;;;;163.52;16.38;;;;;;;;;;5053173;28;20061;-79
2022/01/13 05:40:58;;;;;;;147.45;16.10;;;;;;;;;;5070017;28;20105;-79
2022/01/13 05:43:24;;;;;;;178.40;17.02;;;;;;;;;;5069312;28;20067;-79
2022/01/13 05:45:50;;;;;;;136.45;16.83;;;;;;;;;;5070380;28;20435;-79
2022/01/13 05:48:16;;;;;;;141.13;16.35;;;;;;;;;;5053170;28;20127;-79
2022/01/13 05:50:42;;;;;;;139.48;15.85;;;;;;;;;;5052774;28;20056;-79
2022/01/13 05:53:08;;;;;;;134.45;15.57;;;;;;;;;;5070081;28;20520;-79
2022/01/13 05:55:34;;;;;;;115.53;14.65;;;;;;;;;;5068597;28;20083;-79
2022/01/13 05:58:01;;;;;;;128.27;15.35;;;;;;;;;;5069553;28;20150;-79
2022/01/13 06:00:27;;;;;;;146.45;15.40;;;;;;;;;;5068257;28;20044;-79
2022/01/13 06:02:53;;;;;;;144.43;15.70;;;;;;;;;;5069330;28;20045;-79
2022/01/13 06:05:20;;;;;;;132.68;16.83;;;;;;;;;;5068911;28;20040;-79
2022/01/13 06:07:46;;;;;;;125.03;14.90;;;;;;;;;;5070153;28;20309;-79
2022/01/13 06:10:18;;;;;;;142.27;16.50;;;;;;;;;;5071699;28;20515;-79
2022/01/13 06:12:44;;;;;;;138.15;15.38;;;;;;;;;;5069839;28;20044;-79
2022/01/13 06:15:12;;;;;;;124.72;14.40;;;;;;;;;;5052746;28;20119;-79
2022/01/13 06:17:38;;;;;;;126.65;14.98;;;;;;;;;;5070451;28;20041;-79
2022/01/13 06:20:05;;;;;;;142.23;16.30;;;;;;;;;;5070563;28;20045;-79
2022/01/13 06:22:31;;;;;;;148.00;16.10;;;;;;;;;;5070043;28;20127;-80
2022/01/13 06:24:58;;;;;;;138.70;15.65;;;;;;;;;;5052864;28;20047;-79
2022/01/13 06:27:24;;;;;;;134.65;15.20;;;;;;;;;;5068792;28;20040;-79
2022/01/13 06:29:50;;;;;;;143.05;14.50;;;;;;;;;;5069309;28;20040;-79
2022/01/13 06:32:17;;;;;;;132.13;15.23;;;;;;;;;;5068470;28;20145;-80
2022/01/13 06:34:43;;;;;;;156.98;14.90;;;;;;;;;;5069845;28;20076;-80
2022/01/13 06:37:09;;;;;;;111.28;14.15;;;;;;;;;;5070291;28;20044;-80
2022/01/13 06:39:35;;;;;;;117.25;13.88;;;;;;;;;;5068379;28;20053;-80
2022/01/13 06:42:01;;;;;;;164.80;17.02;;;;;;;;;;5068793;28;20063;-81
2022/01/13 06:44:27;;;;;;;146.07;15.43;;;;;;;;;;5068381;28;20051;-79
2022/01/13 06:46:53;;;;;;;156.07;14.93;;;;;;;;;;5035897;28;20496;-80
2022/01/13 06:49:20;;;;;;;129.88;14.45;;;;;;;;;;5069964;28;20351;-79
2022/01/13 06:51:46;;;;;;;111.43;14.02;;;;;;;;;;5070095;28;20498;-79
2022/01/13 06:54:12;;;;;;;144.25;15.73;;;;;;;;;;5068717;28;20048;-80
2022/01/13 06:56:38;;;;;;;130.82;14.05;;;;;;;;;;5069633;28;20049;-79
2022/01/13 06:59:10;;;;;;;117.90;15.02;;;;;;;;;;5051944;28;20036;-79
2022/01/13 07:01:36;;;;;;;124.25;15.18;;;;;;;;;;5068267;28;20128;-80
2022/01/13 07:04:02;;;;;;;135.35;14.90;;;;;;;;;;5068666;28;20048;-80
2022/01/13 07:06:28;;;;;;;114.05;13.82;;;;;;;;;;5068964;28;20544;-79
2022/01/13 07:08:54;;;;;;;141.80;14.88;;;;;;;;;;5073738;28;20037;-79
2022/01/13 07:11:20;;;;;;;129.05;14.88;;;;;;;;;;5055616;28;20451;-80
2022/01/13 07:13:47;;;;;;;118.38;14.93;;;;;;;;;;5072590;28;20050;-80
2022/01/13 07:16:14;;;;;;;150.90;15.45;;;;;;;;;;5055512;28;20048;-79
2022/01/13 07:18:40;;;;;;;130.43;15.57;;;;;;;;;;5072855;28;20090;-80
2022/01/13 07:21:08;;;;;;;134.90;15.15;;;;;;;;;;5071277;28;20055;-80
2022/01/13 07:23:35;;;;;;;145.20;15.57;;;;;;;;;;5072772;28;20040;-79
2022/01/13 07:26:02;;;;;;;151.52;14.75;;;;;;;;;;5071960;28;20445;-79
2022/01/13 07:28:29;;;;;;;140.30;15.43;;;;;;;;;;5054874;28;20048;-80
2022/01/13 07:30:55;;;;;;;156.90;16.08;;;;;;;;;;5071353;28;20351;-80
2022/01/13 07:33:21;;;;;;;153.57;16.58;;;;;;;;;;5072575;28;20040;-79
2022/01/13 07:35:47;;;;;;;139.13;16.02;;;;;;;;;;5071531;28;20049;-79
2022/01/13 07:38:13;;;;;;;151.93;16.30;;;;;;;;;;5054945;28;20084;-79
2022/01/13 07:40:39;;;;;;;150.95;15.25;;;;;;;;;;5070984;28;20055;-80
2022/01/13 07:43:06;;;;;;;153.07;15.75;;;;;;;;;;5071701;28;20104;-80
2022/01/13 07:45:32;;;;;;;139.02;15.85;;;;;;;;;;5054217;28;20041;-80
2022/01/13 07:47:58;;;;;;;154.63;16.73;;;;;;;;;;5071348;28;20050;-80
2022/01/13 07:50:24;;;;;;;147.90;16.40;;;;;;;;;;5071235;28;20507;-80
2022/01/13 07:52:50;;;;;;;167.68;16.48;;;;;;;;;;5071351;28;20044;-80
2022/01/13 07:55:16;;;;;;;172.07;16.75;;;;;;;;;;5071453;28;20043;-80
2022/01/13 07:57:43;;;;;;;193.23;17.77;;;;;;;;;;5072550;28;20111;-79
2022/01/13 08:00:10;;;;;;;161.85;17.00;;;;;;;;;;5054761;28;20044;-79
2022/01/13 08:02:36;;;;;;;170.95;16.98;;;;;;;;;;5071283;28;20037;-80
2022/01/13 08:05:03;;;;;;;139.93;15.95;;;;;;;;;;5072378;28;20072;-80
2022/01/13 08:07:29;;;;;;;168.52;17.90;;;;;;;;;;5054611;28;20587;-79
2022/01/13 08:09:55;;;;;;;198.13;18.98;;;;;;;;;;5071945;28;20408;-79
2022/01/13 08:12:22;;;;;;;182.93;18.02;;;;;;;;;;5072073;28;20052;-79
2022/01/13 08:14:50;;;;;;;165.95;18.20;;;;;;;;;;5071053;28;20037;-79
2022/01/13 08:20:01;;;;;;;172.35;19.38;;;;;;;;;;5070942;28;20127;-79
2022/01/13 08:22:27;;;;;;;182.98;18.63;;;;;;;;;;5073636;28;20470;-79
2022/01/13 08:24:53;;;;;;;170.73;19.88;;;;;;;;;;5072780;28;20083;-79
2022/01/13 08:27:19;;;;;;;192.90;19.77;;;;;;;;;;5071748;28;20494;-79
2022/01/13 08:29:45;;;;;;;193.63;19.30;;;;;;;;;;5071384;28;20063;-79
2022/01/13 08:32:11;;;;;;;181.13;18.88;;;;;;;;;;5070861;28;20068;-79
2022/01/13 08:34:37;;;;;;;172.85;19.17;;;;;;;;;;5072159;28;20064;-79
2022/01/13 08:37:03;;;;;;;200.30;19.65;;;;;;;;;;5071133;28;20048;-79
2022/01/13 08:39:32;;;;;;;168.95;19.58;;;;;;;;;;5070441;28;20054;-79
2022/01/13 08:41:58;;;;;;;219.48;20.35;;;;;;;;;;5053974;28;20330;-79
2022/01/13 08:44:24;;;;;;;177.88;18.08;;;;;;;;;;5070659;28;20060;-79
2022/01/13 08:46:50;;;;;;;174.48;18.45;;;;;;;;;;5072182;28;20052;-79
2022/01/13 08:49:16;;;;;;;193.60;19.60;;;;;;;;;;5072313;28;20037;-79
2022/01/13 08:51:42;;;;;;;204.32;19.73;;;;;;;;;;5071312;28;20040;-80
2022/01/13 08:54:08;;;;;;;157.57;19.48;;;;;;;;;;5070702;28;20098;-79
2022/01/13 08:56:34;;;;;;;168.15;19.92;;;;;;;;;;5069949;28;20043;-79
2022/01/13 08:59:00;;;;;;;173.88;20.23;;;;;;;;;;5070342;28;20119;-80
2022/01/13 09:01:28;;;;;;;213.82;20.05;;;;;;;;;;5069876;28;20033;-80
2022/01/13 09:03:54;;;;;;;188.88;20.17;;;;;;;;;;5069976;28;20036;-79
2022/01/13 09:06:20;;;;;;;195.82;20.58;;;;;;;;;;5070181;28;20077;-80
2022/01/13 09:08:46;;;;;;;191.13;20.55;;;;;;;;;;5070003;28;20559;-80
2022/01/13 09:11:12;;;;;;;175.18;20.27;;;;;;;;;;5053784;28;20153;-80
2022/01/13 09:13:39;;;;;;;164.00;20.20;;;;;;;;;;5053067;28;20098;-80
2022/01/13 09:16:14;;;;;;;188.20;21.45;;;;;;;;;;5053429;28;20128;-79
2022/01/13 09:18:59;;;;;;;181.80;21.13;;;;;;;;;;5054145;28;20048;-79
2022/01/13 09:21:27;;;;;;;204.93;23.55;;;;;;;;;;5069493;28;20044;-80
2022/01/13 09:23:53;;;;;;;216.07;23.40;;;;;;;;;;5053565;28;20383;-80
2022/01/13 09:26:19;;;;;;;218.63;24.15;;;;;;;;;;5071703;28;20041;-79
2022/01/13 09:28:45;;;;;;;215.15;24.98;;;;;;;;;;5069139;28;20048;-79
2022/01/13 09:31:12;;;;;;;204.95;25.80;;;;;;;;;;5052291;28;20487;-79
2022/01/13 09:33:38;;;;;;;222.00;26.83;;;;;;;;;;5069172;28;20052;-79
2022/01/13 09:36:06;;;;;;;203.05;26.52;;;;;;;;;;5069877;28;20119;-79
2022/01/13 09:38:33;;;;;;;217.05;27.55;;;;;;;;;;5069262;28;20044;-79
2022/01/13 09:40:59;;;;;;;194.07;26.05;;;;;;;;;;5069887;28;20064;-79
2022/01/13 09:43:27;;;;;;;227.02;26.92;;;;;;;;;;5069087;28;20047;-80
2022/01/13 09:45:54;;;;;;;220.70;27.52;;;;;;;;;;5069743;28;20049;-79
2022/01/13 09:48:20;;;;;;;198.38;26.08;;;;;;;;;;5052537;28;20127;-79
2022/01/13 09:50:55;;;;;;;206.93;25.38;;;;;;;;;;5086865;27;20514;-76
2022/01/13 09:53:21;;;;;;;187.00;22.85;;;;;;;;;;5085497;28;20045;-75
2022/01/13 09:55:47;;;;;;;194.10;23.67;;;;;;;;;;5085486;28;20458;-75
2022/01/13 09:58:14;;;;;;;179.88;24.20;;;;;;;;;;5068969;28;20048;-75
2022/01/13 10:00:41;;;;;;;167.50;22.88;;;;;;;;;;5084717;28;20082;-75
2022/01/13 10:03:15;;;;;;;192.23;24.20;;;;;;;;;;5085088;28;20495;-75
2022/01/13 10:05:51;;;;;;;192.98;24.35;;;;;;;;;;5084964;28;20040;-75
2022/01/13 10:08:20;;;;;;;183.43;24.20;;;;;;;;;;5085229;28;20066;-75
2022/01/13 10:10:46;;;;;;;190.30;24.20;;;;;;;;;;5085051;28;20052;-75
2022/01/13 10:13:21;;;;;;;168.98;23.58;;;;;;;;;;5085160;28;20151;-75
2022/01/13 10:18:52;;;;;;;183.75;23.35;;;;;;;;;;5084689;28;20395;-75
2022/01/13 10:21:19;;;;;;;168.75;23.77;;;;;;;;;;5085483;28;20438;-75
2022/01/13 10:24:01;;;;;;;181.85;23.20;;;;;;;;;;5084581;28;20036;-76
2022/01/13 10:26:28;;;;;;;166.23;21.85;;;;;;;;;;5067569;28;20066;-75
2022/01/13 10:28:54;;;;;;;180.63;23.85;;;;;;;;;;5068056;28;20044;-75
2022/01/13 10:31:21;;;;;;;169.80;23.40;;;;;;;;;;5084732;28;20081;-76
2022/01/13 10:33:47;;;;;;;187.57;23.33;;;;;;;;;;5085628;28;20040;-77
2022/01/13 10:36:13;;;;;;;158.60;21.33;;;;;;;;;;5084885;28;20563;-76
2022/01/13 10:38:53;;;;;;;174.13;21.20;;;;;;;;;;5084391;28;20553;-76
2022/01/13 10:41:29;;;;;;;177.30;21.40;;;;;;;;;;5085062;28;20044;-76
2022/01/13 10:44:25;;;;;;;151.43;21.67;;;;;;;;;;5084626;28;20127;-76
2022/01/13 10:46:57;;;;;;;170.90;22.35;;;;;;;;;;5075609;28;20048;-76
2022/01/13 10:49:38;;;;;;;140.52;22.08;;;;;;;;;;5084169;28;20135;-76
2022/01/13 10:52:31;;;;;;;159.50;22.20;;;;;;;;;;5084869;28;20051;-75
2022/01/13 10:55:03;;;;;;;157.95;23.05;;;;;;;;;;5082442;28;20606;-76
2022/01/13 10:57:29;;;;;;;152.20;21.30;;;;;;;;;;5083797;28;20044;-76
2022/01/13 10:59:55;;;;;;;141.65;22.05;;;;;;;;;;5084490;28;20492;-76
2022/01/13 11:02:22;;;;;;;146.52;23.45;;;;;;;;;;5070345;28;20155;-75
2022/01/13 11:04:49;;;;;;;128.85;22.05;;;;;;;;;;5053699;28;20044;-74
2022/01/13 11:07:17;;;;;;;141.05;24.05;;;;;;;;;;5070795;28;20273;-76
2022/01/13 11:09:51;;;;;;;156.93;24.83;;;;;;;;;;5070171;28;20048;-75
2022/01/13 11:12:17;;;;;;;166.57;26.55;;;;;;;;;;5071114;28;20055;-75
2022/01/13 11:14:45;;;;;;;166.10;26.52;;;;;;;;;;5070273;28;20040;-76
2022/01/13 11:17:11;;;;;;;181.02;26.38;;;;;;;;;;5070611;28;20410;-75
2022/01/13 11:19:44;;;;;;;172.43;26.80;;;;;;;;;;5069828;28;20036;-76
2022/01/13 11:22:12;;;;;;;174.40;27.92;;;;;;;;;;5070317;28;20124;-76
2022/01/13 11:24:38;;;;;;;192.52;30.80;;;;;;;;;;5069917;28;20072;-77
2022/01/13 11:27:06;;;;;;;192.25;29.60;;;;;;;;;;5070330;28;20044;-76
2022/01/13 11:29:32;;;;;;;146.88;25.25;;;;;;;;;;5069796;28;20044;-76
2022/01/13 11:31:58;;;;;;;157.65;26.40;;;;;;;;;;5071728;28;20045;-76
2022/01/13 11:34:24;;;;;;;156.10;25.58;;;;;;;;;;5070160;28;20047;-75
2022/01/13 11:36:51;;;;;;;130.68;25.67;;;;;;;;;;5069790;28;20119;-75
2022/01/13 11:39:18;;;;;;;157.88;28.30;;;;;;;;;;5053860;28;20553;-76
2022/01/13 11:42:04;;;;;;;147.20;28.55;;;;;;;;;;5053321;28;20157;-77
2022/01/13 11:44:30;;;;;;;134.20;28.83;;;;;;;;;;5069814;28;20044;-76
2022/01/13 11:46:56;;;;;;;139.85;28.98;;;;;;;;;;5070021;28;20056;-76
2022/01/13 11:49:38;;;;;;;134.27;29.02;;;;;;;;;;5069447;28;20059;-76
2022/01/13 11:54:37;;;;;;;139.35;28.40;;;;;;;;;;5069499;28;20047;-77
2022/01/13 11:57:09;;;;;;;138.20;29.02;;;;;;;;;;5069762;28;20037;-76
2022/01/13 11:59:36;;;;;;;139.10;29.98;;;;;;;;;;5069191;28;20045;-76
2022/01/13 12:02:37;;;;;;;139.77;31.35;;;;;;;;;;5069727;28;20523;-76
2022/01/13 12:05:05;;;;;;;137.95;29.98;;;;;;;;;;4995345;28;20072;-76
2022/01/13 12:07:35;;;;;;;136.10;29.73;;;;;;;;;;5041131;28;20048;-76
2022/01/13 12:10:03;;;;;;;127.47;28.60;;;;;;;;;;5068665;28;20095;-76
2022/01/13 12:12:30;;;;;;;149.73;32.95;;;;;;;;;;5068320;28;20134;-76
2022/01/13 12:15:13;;;;;;;127.25;29.60;;;;;;;;;;5069701;28;20479;-76
2022/01/13 12:17:44;;;;;;;119.22;28.95;;;;;;;;;;5070258;28;20040;-76
2022/01/13 12:23:40;;;;;;;131.68;30.58;;;;;;;;;;5035380;28;20054;-76
2022/01/13 12:26:25;;;;;;;115.57;30.10;;;;;;;;;;5069424;28;20059;-76
2022/01/13 12:29:09;;;;;;;114.97;29.30;;;;;;;;;;5051596;28;20041;-76
2022/01/13 12:31:35;;;;;;;119.68;31.45;;;;;;;;;;5068228;28;20036;-74
2022/01/13 12:34:01;;;;;;;113.93;31.58;;;;;;;;;;5052556;28;20036;-76
2022/01/13 12:36:27;;;;;;;104.28;30.48;;;;;;;;;;5068304;28;20041;-76
2022/01/13 12:39:00;;;;;;;114.70;31.52;;;;;;;;;;5069910;28;20048;-76
2022/01/13 12:41:28;;;;;;;109.43;32.60;;;;;;;;;;5068611;28;20083;-76
2022/01/13 12:44:19;;;;;;;123.22;32.38;;;;;;;;;;5068977;28;20051;-76
2022/01/13 12:46:46;;;;;;;104.95;32.03;;;;;;;;;;5051762;28;20051;-76
2022/01/13 12:49:13;;;;;;;122.18;33.28;;;;;;;;;;5051673;28;20048;-76
2022/01/13 12:51:39;;;;;;;103.80;31.63;;;;;;;;;;5051464;28;20044;-76
2022/01/13 12:54:05;;;;;;;108.18;32.15;;;;;;;;;;5068257;28;20050;-76
2022/01/13 12:56:31;;;;;;;107.72;32.97;;;;;;;;;;5069367;28;20331;-76
2022/01/13 12:59:01;;;;;;;103.95;32.72;;;;;;;;;;5069966;28;20047;-76
2022/01/13 13:01:29;;;;;;;105.15;31.48;;;;;;;;;;5051722;28;20045;-76
2022/01/13 13:03:58;;;;;;;98.68;30.90;;;;;;;;;;5068642;28;20072;-76
2022/01/13 13:06:24;;;;;;;97.53;29.88;;;;;;;;;;5068352;28;20262;-76
2022/01/13 13:08:50;;;;;;;105.03;30.88;;;;;;;;;;5068038;28;20487;-76
2022/01/13 13:11:16;;;;;;;92.28;30.35;;;;;;;;;;5069366;28;20102;-76
2022/01/13 13:13:51;;;;;;;90.72;29.17;;;;;;;;;;5051155;28;20047;-76
2022/01/13 13:16:17;;;;;;;90.15;28.38;;;;;;;;;;5068111;28;20041;-76
2022/01/13 13:18:44;;;;;;;77.05;27.60;;;;;;;;;;5068048;28;20040;-76
2022/01/13 13:21:11;;;;;;;73.30;26.63;;;;;;;;;;5067672;28;20040;-76
2022/01/13 13:23:39;;;;;;;85.30;27.90;;;;;;;;;;5067240;28;20122;-76
2022/01/13 13:26:08;;;;;;;76.93;26.08;;;;;;;;;;5068560;28;20128;-76
2022/01/13 13:28:39;;;;;;;74.47;27.42;;;;;;;;;;5050757;28;20040;-77
2022/01/13 13:31:11;;;;;;;85.05;26.77;;;;;;;;;;5067707;28;20429;-76
2022/01/13 13:33:40;;;;;;;77.30;27.83;;;;;;;;;;5067316;28;20040;-76
2022/01/13 13:36:11;;;;;;;74.68;27.20;;;;;;;;;;5067964;28;20083;-77
2022/01/13 13:38:47;;;;;;;77.30;26.92;;;;;;;;;;5067474;28;20113;-77
2022/01/13 13:41:15;;;;;;;76.00;27.83;;;;;;;;;;5068113;28;20051;-76
2022/01/13 13:43:41;;;;;;;68.10;25.88;;;;;;;;;;5050992;28;20400;-77
2022/01/13 13:46:07;;;;;;;72.82;28.08;;;;;;;;;;5067677;28;20037;-76
2022/01/13 13:48:33;;;;;;;71.70;27.00;;;;;;;;;;5066854;28;20047;-76
2022/01/13 13:50:59;;;;;;;77.25;28.67;;;;;;;;;;5069286;28;20053;-76
2022/01/13 13:53:26;;;;;;;70.78;27.23;;;;;;;;;;5068123;28;20044;-76
2022/01/13 13:55:56;;;;;;;71.50;28.05;;;;;;;;;;5051064;28;20052;-76
2022/01/13 13:58:22;;;;;;;169.40;89.40;;;;;;;;;;5067765;28;20044;-76
2022/01/13 14:00:48;;;;;;;73.82;27.85;;;;;;;;;;5067060;28;20097;-76
2022/01/13 14:03:21;;;;;;;68.75;26.35;;;;;;;;;;5067715;28;20594;-77
2022/01/13 14:05:47;;;;;;;75.15;28.23;;;;;;;;;;5067348;28;20041;-76
2022/01/13 14:08:13;;;;;;;73.53;27.42;;;;;;;;;;5067503;28;20037;-76
2022/01/13 14:10:39;;;;;;;77.55;28.65;;;;;;;;;;5050448;28;20094;-76
2022/01/13 14:13:07;;;;;;;71.93;26.58;;;;;;;;;;5067598;28;20040;-76
2022/01/13 14:15:41;;;;;;;63.88;27.40;;;;;;;;;;5067179;28;20036;-76
2022/01/13 14:18:14;;;;;;;70.88;26.85;;;;;;;;;;5068973;28;20060;-76
2022/01/13 14:20:46;;;;;;;69.80;26.67;;;;;;;;;;5067302;28;20059;-76
2022/01/13 14:23:23;;;;;;;65.10;26.02;;;;;;;;;;5067412;28;20139;-76
2022/01/13 14:25:50;;;;;;;71.72;27.38;;;;;;;;;;5050097;28;20036;-76
2022/01/13 14:28:22;;;;;;;77.43;27.02;;;;;;;;;;5067248;28;20051;-76
2022/01/13 14:30:49;;;;;;;67.40;26.77;;;;;;;;;;5066793;28;20123;-76
2022/01/13 14:33:15;;;;;;;67.65;25.45;;;;;;;;;;5050595;28;20055;-76
2022/01/13 14:35:41;;;;;;;67.40;26.92;;;;;;;;;;5067619;28;20124;-76
2022/01/13 14:38:12;;;;;;;68.57;26.88;;;;;;;;;;5054558;28;20036;-76
2022/01/13 14:40:48;;;;;;;71.60;26.27;;;;;;;;;;5071825;28;20047;-76
2022/01/13 14:43:19;;;;;;;61.97;25.75;;;;;;;;;;5072245;28;20051;-76
2022/01/13 14:45:46;;;;;;;66.43;26.15;;;;;;;;;;5071985;28;20059;-76
2022/01/13 14:48:13;;;;;;;66.25;25.67;;;;;;;;;;5071232;28;20515;-76
2022/01/13 14:50:39;;;;;;;71.15;26.38;;;;;;;;;;5069949;28;20049;-76
2022/01/13 14:53:06;;;;;;;72.13;25.05;;;;;;;;;;5054618;28;20091;-76